• Join FlightAware (Why Join?)
  • Login
  • US Flag 
07:11PM EDT


 

Airport Tracker/Info


-or-


 

Live Flight TrackerFlight Track Log ✈ N351CG ✈ 07-May-2013 ✈ KSTP - KSTP

Flight Track Log - Related Links

Times and Time Zones

All times are in EDT time to prevent confusion due to time zone crossing. See the N351CG flight status page for this flight to view local times or setup timezone preferences in your user account.

Time Position Orientation Groundspeed Altitude Reporting Facility
EDT Latitude Longitude Course Direction KTS MPH feet Rate Location/Type
03:41PM 44.9833 -92.9833 13° North 246 283 4,800  Level Minneapolis TRACON
03:42PM 45.0800 -92.9906 357° North 263 303 8,900 3,660 Climbing Minneapolis Center
03:43PM 45.1617 -92.9875 North 292 336 13,000 3,960 Climbing Minneapolis Center
03:44PM 45.2411 -92.9806 North 287 330 17,100 3,720 Climbing Minneapolis Center
03:45PM 45.3211 -92.9758 North 288 331 20,700 3,420 Climbing Minneapolis Center
03:46PM 45.4072 -92.9694 North 301 346 24,200 3,300 Climbing Minneapolis Center
03:47PM 45.5133 -92.9572 North 317 365 28,200 3,180 Climbing Minneapolis Center
03:48PM 45.6139 -92.8969 23° Northeast 327 376 31,500 2,640 Climbing Minneapolis Center
03:49PM 45.6997 -92.8475 22° Northeast 331 381 33,700 1,920 Climbing Minneapolis Center
03:50PM 45.7911 -92.7947 22° Northeast 347 399 35,500 1,560 Climbing Minneapolis Center
03:51PM 45.8889 -92.7386 22° Northeast 369 425 37,000 1,440 Climbing Minneapolis Center
03:52PM 45.9892 -92.6825 21° North 382 440 38,500 1,440 Climbing Minneapolis Center
03:53PM 46.0903 -92.6225 22° Northeast 391 450 40,000 1,200 Climbing Minneapolis Center
03:54PM 46.2147 -92.5503 22° Northeast 401 461 41,000 480 Climbing Minneapolis Center
03:56PM 46.3058 -92.4972 22° Northeast 411 473 41,000  Level Minneapolis Center
03:57PM 46.4158 -92.5336 347° North 415 478 41,000  Level Minneapolis Center
03:58PM 46.4375 -92.7272 279° West 416 479 41,000  Level Minneapolis Center
03:59PM 46.4275 -92.8914 265° West 412 474 41,000  Level Minneapolis Center
04:00PM 46.4161 -93.0544 264° West 408 470 41,000 -360 Level Minneapolis Center
04:01PM 46.4056 -93.2172 265° West 406 467 40,300 -1,500 Descending Minneapolis Center
04:02PM 46.3944 -93.3811 264° West 407 468 37,900 -2,460 Descending Minneapolis Center
04:03PM 46.3833 -93.5422 264° West 405 466 35,300 -2,700 Descending Minneapolis Center
04:04PM 46.3714 -93.7025 264° West 402 463 32,400 -3,000 Descending Minneapolis Center
04:05PM 46.3222 -93.8683 247° West 382 440 29,100 -2,880 Descending Minneapolis Center
04:06PM 46.2311 -93.9331 206° Southwest 373 429 26,500 -2,640 Descending Minneapolis Center
04:07PM 46.1200 -93.9017 169° South 372 428 23,700 -2,640 Descending Minneapolis Center
04:08PM 46.0247 -93.8500 159° South 367 422 21,100 -2,520 Descending Minneapolis Center
04:09PM 45.9289 -93.7992 160° South 369 425 18,600 -2,460 Descending Minneapolis Center
04:10PM 45.8350 -93.7464 159° South 365 420 16,100 -2,400 Descending Minneapolis Center
04:11PM 45.7422 -93.6947 159° South 357 411 13,700 -2,400 Descending Minneapolis Center
04:12PM 45.6569 -93.6478 159° South 330 380 11,300 -2,340 Descending Minneapolis Center
04:13PM 45.5694 -93.6003 159° South 281 323 9,000 -1,620 Descending Minneapolis Center
04:14PM 45.5019 -93.5642 159° South 259 298 8,000 -1,020 Descending Minneapolis Center
04:15PM 45.4367 -93.5172 153° Southeast 264 304 6,900 -1,440 Descending Minneapolis Center
04:16PM 45.3775 -93.4617 147° Southeast 256 295 5,100 -960 Descending Minneapolis Center
04:17PM 45.3183 -93.4072 147° Southeast 254 292 5,000 -60 Descending Minneapolis Center
04:18PM 45.2644 -93.3578 147° Southeast 236 272 5,000 -360 Level Minneapolis Center
04:19PM 45.1953 -93.2956 148° Southeast 245 282 4,300 -540 Descending Minneapolis Center
04:20PM 45.1389 -93.2442 147° Southeast 242 278 4,000 -420 Descending Minneapolis Center
04:21PM 45.0844 -93.1947 147° Southeast 234 269 3,500 -540 Descending Minneapolis Center
04:22PM 45.0336 -93.1486 147° Southeast 220 253 2,900 -780 Descending Minneapolis Center
04:23PM 44.9833 -93.1064 149° Southeast 209 241 2,000 -900 Descending Minneapolis Center
04:24PM 44.9492 -93.0764 148° Southeast 144 166 1,100 -900 Descending Minneapolis Center
04:26PM 44.9333 -93.0500 90° East  Level FlightAware Approximate
04:33PM 44.9346 -93.0603 90° East  Level Estimated
04:34PM 44.9346 -93.0603 90° East  Level Estimated